Time;durP1;ratioP1;P1;durP2;ratioP2;P2;SDS_P1;SDS_P2;PMS_P1;PMS_P2;Temp;Humidity;BMP_temperature;BMP_pressure;BME280_temperature;BME280_humidity;BME280_pressure;Samples;Min_cycle;Max_cycle;Signal;HPM_P1;HPM_P2
2023/08/27 00:02:14;;;;;;;8.10;3.50;;;;;;;21.91;100.00;98783.75;109703;1250;59169;-71
2023/08/27 00:04:42;;;;;;;5.30;3.70;;;;;;;21.87;100.00;98779.43;109641;1250;66517;-70
2023/08/27 00:07:09;;;;;;;5.30;3.60;;;;;;;21.83;100.00;98778.06;109640;1250;73155;-70
2023/08/27 00:09:35;;;;;;;8.00;3.40;;;;;;;21.82;100.00;98772.55;109543;1251;62039;-70
2023/08/27 00:12:03;;;;;;;6.50;3.20;;;;;;;21.81;100.00;98775.45;109616;1250;60570;-71
2023/08/27 00:14:30;;;;;;;4.00;2.80;;;;;;;21.73;100.00;98777.29;109676;1250;74493;-71
2023/08/27 00:16:56;;;;;;;4.60;3.20;;;;;;;21.62;100.00;98781.86;109645;1250;67680;-71
2023/08/27 00:19:28;;;;;;;5.10;3.50;;;;;;;21.53;100.00;98779.95;109646;1250;72475;-72
2023/08/27 00:21:54;;;;;;;5.00;3.70;;;;;;;21.48;100.00;98787.20;109638;1251;61711;-71
2023/08/27 00:24:21;;;;;;;5.20;3.80;;;;;;;21.47;100.00;98782.27;109619;1250;60049;-71
2023/08/27 00:26:47;;;;;;;6.00;3.70;;;;;;;21.47;100.00;98777.23;109717;1250;59081;-71
2023/08/27 00:29:18;;;;;;;6.00;3.40;;;;;;;21.46;100.00;98779.70;109700;1250;67978;-71
2023/08/27 00:31:44;;;;;;;4.90;3.10;;;;;;;21.42;100.00;98781.02;109585;1250;72483;-70
2023/08/27 00:34:11;;;;;;;2.70;2.50;;;;;;;21.36;100.00;98776.55;109599;1250;60490;-70
2023/08/27 00:36:38;;;;;;;5.70;3.60;;;;;;;21.31;100.00;98776.44;109570;1251;60277;-70
2023/08/27 00:39:05;;;;;;;4.70;3.40;;;;;;;21.25;100.00;98774.70;109666;1250;58948;-70
2023/08/27 00:41:32;;;;;;;3.60;3.20;;;;;;;21.17;100.00;98769.48;109471;1250;66337;-70
2023/08/27 00:43:58;;;;;;;6.80;3.90;;;;;;;21.09;100.00;98769.02;109561;1252;71761;-70
2023/08/27 00:46:25;;;;;;;5.10;3.10;;;;;;;21.00;100.00;98770.58;109640;1250;58995;-70
2023/08/27 00:48:51;;;;;;;9.80;3.00;;;;;;;20.92;100.00;98773.04;109543;1250;60013;-70
2023/08/27 00:51:18;;;;;;;5.20;3.10;;;;;;;20.87;100.00;98770.38;109560;1250;74499;-70
2023/08/27 00:53:44;;;;;;;4.10;3.40;;;;;;;20.86;100.00;98769.28;109612;1249;67622;-70
2023/08/27 00:56:11;;;;;;;3.40;2.90;;;;;;;20.84;100.00;98767.16;109501;1250;71188;-70
2023/08/27 00:58:37;;;;;;;5.10;4.00;;;;;;;20.80;100.00;98770.46;109538;1250;59043;-70
2023/08/27 01:01:04;;;;;;;3.60;3.30;;;;;;;20.77;100.00;98769.70;109522;1250;58953;-70
2023/08/27 01:03:32;;;;;;;3.50;3.00;;;;;;;20.70;100.00;98767.41;109535;1250;74574;-70
2023/08/27 01:05:59;;;;;;;4.60;3.50;;;;;;;20.54;100.00;98763.28;109597;1250;66686;-70
2023/08/27 01:08:38;;;;;;;4.30;3.50;;;;;;;20.36;100.00;98761.64;109557;1249;72758;-71
2023/08/27 01:11:12;;;;;;;4.50;3.40;;;;;;;20.19;100.00;98762.36;109517;1251;60389;-70
2023/08/27 01:13:50;;;;;;;5.60;3.40;;;;;;;20.13;100.00;98762.06;109478;1251;58892;-71
2023/08/27 01:16:18;;;;;;;6.20;3.60;;;;;;;20.13;100.00;98762.33;109467;1250;74648;-69
2023/08/27 01:18:44;;;;;;;6.00;3.20;;;;;;;20.15;100.00;98764.67;109507;1250;66901;-71
2023/08/27 01:21:20;;;;;;;4.30;3.10;;;;;;;20.18;100.00;98765.30;109525;1250;72523;-70
2023/08/27 01:23:46;;;;;;;4.20;3.20;;;;;;;20.20;100.00;98761.08;109623;1250;60461;-70
2023/08/27 01:26:42;;;;;;;5.00;3.30;;;;;;;20.24;100.00;98755.54;109666;1250;59486;-70
2023/08/27 01:29:26;;;;;;;5.90;3.80;;;;;;;20.30;100.00;98751.73;109545;1250;74562;-70
2023/08/27 01:31:59;;;;;;;5.90;3.80;;;;;;;20.39;100.00;98752.88;109595;1250;67204;-70
2023/08/27 01:34:25;;;;;;;6.50;3.60;;;;;;;20.46;100.00;98751.13;109549;1250;71209;-69
2023/08/27 01:36:52;;;;;;;9.70;4.00;;;;;;;20.45;100.00;98752.36;109446;1250;60781;-70
2023/08/27 01:39:19;;;;;;;9.50;3.90;;;;;;;20.42;100.00;98753.84;109679;1250;59201;-70
2023/08/27 01:41:46;;;;;;;8.70;4.70;;;;;;;20.41;100.00;98760.46;109537;1250;74332;-70
2023/08/27 01:44:12;;;;;;;11.90;4.10;;;;;;;20.40;100.00;98765.70;109550;1250;67682;-70
2023/08/27 01:46:39;;;;;;;5.90;3.90;;;;;;;20.47;100.00;98766.85;109662;1250;73577;-69
2023/08/27 01:49:06;;;;;;;8.40;4.30;;;;;;;20.56;100.00;98766.60;109486;1251;62202;-70
2023/08/27 01:51:32;;;;;;;8.70;4.20;;;;;;;20.67;100.00;98768.52;109557;1250;60038;-71
2023/08/27 01:53:59;;;;;;;7.20;3.60;;;;;;;20.78;100.00;98775.41;109627;1250;73059;-71
2023/08/27 01:56:25;;;;;;;5.20;3.90;;;;;;;20.88;100.00;98776.92;109575;1250;66623;-70
2023/08/27 01:58:52;;;;;;;5.10;3.60;;;;;;;20.95;100.00;98780.15;109554;1250;72821;-71
2023/08/27 02:01:18;;;;;;;8.50;3.70;;;;;;;21.04;100.00;98783.38;109555;1250;61675;-70
2023/08/27 02:03:45;;;;;;;8.00;4.50;;;;;;;21.11;100.00;98789.16;109570;1251;58941;-71
2023/08/27 02:06:12;;;;;;;8.00;4.20;;;;;;;21.16;100.00;98786.46;109582;1250;74480;-71
2023/08/27 02:08:38;;;;;;;10.90;4.80;;;;;;;21.21;100.00;98783.75;109590;1250;67843;-71
2023/08/27 02:11:06;;;;;;;11.70;4.60;;;;;;;21.26;100.00;98780.60;109458;1250;72628;-70
2023/08/27 02:13:33;;;;;;;15.20;4.00;;;;;;;21.30;100.00;98775.35;109506;1250;60490;-70
2023/08/27 02:16:00;;;;;;;8.10;3.80;;;;;;;21.33;100.00;98774.51;109681;1250;58910;-70
2023/08/27 02:18:26;;;;;;;8.10;4.00;;;;;;;21.36;100.00;98775.99;109601;1250;72932;-70
2023/08/27 02:20:55;;;;;;;8.40;4.20;;;;;;;21.38;100.00;98774.34;109587;1250;66581;-70
2023/08/27 02:23:21;;;;;;;8.40;4.90;;;;;;;21.38;100.00;98775.84;109634;1250;72405;-70
2023/08/27 02:25:48;;;;;;;13.30;4.90;;;;;;;21.31;100.00;98776.86;109583;1250;58988;-71
2023/08/27 02:28:14;;;;;;;14.10;5.00;;;;;;;21.20;100.00;98777.02;109688;1250;58924;-70
2023/08/27 02:30:42;;;;;;;7.70;4.60;;;;;;;21.06;100.00;98771.45;109655;1250;73522;-71
2023/08/27 02:33:09;;;;;;;10.00;4.70;;;;;;;20.92;100.00;98770.59;109463;1250;67767;-70
2023/08/27 02:35:35;;;;;;;5.80;4.60;;;;;;;20.83;100.00;98768.44;109586;1250;71814;-70
2023/08/27 02:38:03;;;;;;;7.60;4.90;;;;;;;20.76;100.00;98765.44;109526;1251;60792;-70
2023/08/27 02:40:31;;;;;;;6.70;4.80;;;;;;;20.72;100.00;98762.16;109507;1250;60004;-70
2023/08/27 02:42:57;;;;;;;7.70;4.70;;;;;;;20.72;100.00;98771.39;109372;1250;73239;-70
2023/08/27 02:45:24;;;;;;;7.20;4.60;;;;;;;20.75;100.00;98780.40;109611;1250;68004;-71
2023/08/27 02:47:51;;;;;;;7.90;5.00;;;;;;;20.81;100.00;98780.36;109586;1250;72353;-70
2023/08/27 02:50:18;;;;;;;11.80;4.30;;;;;;;20.87;100.00;98783.30;109518;1251;60713;-70
2023/08/27 02:52:45;;;;;;;9.50;4.90;;;;;;;20.91;100.00;98783.19;109660;1250;59387;-70
2023/08/27 02:55:11;;;;;;;6.00;4.90;;;;;;;20.90;100.00;98786.69;109574;1250;74484;-70
2023/08/27 02:57:38;;;;;;;7.80;4.80;;;;;;;20.84;100.00;98786.30;109627;1250;66717;-71
2023/08/27 03:00:05;;;;;;;16.70;6.30;;;;;;;20.72;100.00;98785.44;109648;1250;59143;-69
2023/08/27 03:02:33;;;;;;;12.10;5.70;;;;;;;20.59;100.00;98795.45;109486;1252;62484;-70
2023/08/27 03:05:01;;;;;;;10.10;5.00;;;;;;;20.49;100.00;98799.30;109672;1250;60210;-70
2023/08/27 03:07:28;;;;;;;11.20;5.30;;;;;;;20.46;100.00;98798.02;109603;1250;73134;-71
2023/08/27 03:09:55;;;;;;;10.40;4.70;;;;;;;20.46;100.00;98790.02;109592;1250;67706;-69
2023/08/27 03:12:21;;;;;;;7.40;4.70;;;;;;;20.51;100.00;98789.55;109506;1250;71162;-70
2023/08/27 03:14:48;;;;;;;6.70;5.10;;;;;;;20.54;100.00;98792.90;109558;1250;60505;-70
2023/08/27 03:17:14;;;;;;;5.30;3.90;;;;;;;20.57;100.00;98795.10;109531;1250;59286;-70
2023/08/27 03:19:41;;;;;;;8.50;5.10;;;;;;;20.62;100.00;98792.52;109656;1250;74464;-70
2023/08/27 03:22:08;;;;;;;8.90;4.30;;;;;;;20.68;100.00;98781.50;109563;1250;66541;-71
2023/08/27 03:24:36;;;;;;;4.70;4.10;;;;;;;20.70;100.00;98774.17;109569;1250;71156;-71
2023/08/27 03:27:02;;;;;;;7.70;5.10;;;;;;;20.67;100.00;98768.27;109644;1250;58933;-71
2023/08/27 03:29:29;;;;;;;4.80;4.30;;;;;;;20.64;100.00;98766.48;109568;1250;59205;-70
2023/08/27 03:31:56;;;;;;;8.70;4.50;;;;;;;20.61;100.00;98761.75;109767;1250;74315;-69
2023/08/27 03:34:23;;;;;;;5.70;4.20;;;;;;;20.59;100.00;98758.55;109562;1250;67592;-70
2023/08/27 03:36:49;;;;;;;4.60;4.00;;;;;;;20.61;100.00;98754.79;109557;1250;71644;-70
2023/08/27 03:39:16;;;;;;;6.00;4.30;;;;;;;20.67;100.00;98746.27;109545;1251;60530;-70
2023/08/27 03:41:42;;;;;;;4.90;4.20;;;;;;;20.72;100.00;98743.78;109681;1250;58982;-71
2023/08/27 03:44:09;;;;;;;5.00;3.80;;;;;;;20.78;100.00;98736.70;109652;1250;59468;-70
2023/08/27 03:46:36;;;;;;;8.50;3.80;;;;;;;20.85;100.00;98734.56;109556;1251;66884;-70
2023/08/27 03:49:05;;;;;;;6.60;4.00;;;;;;;20.94;100.00;98725.14;109565;1250;71569;-71
2023/08/27 03:51:32;;;;;;;8.40;3.80;;;;;;;21.04;100.00;98722.27;109577;1251;62168;-70
2023/08/27 03:53:59;;;;;;;9.10;3.90;;;;;;;21.13;100.00;98724.38;109550;1250;60217;-70
2023/08/27 03:56:26;;;;;;;5.40;3.60;;;;;;;21.24;100.00;98723.95;109583;1250;75025;-70
2023/08/27 03:58:52;;;;;;;8.40;3.80;;;;;;;21.35;100.00;98722.96;109532;1251;67671;-71
2023/08/27 04:01:19;;;;;;;9.20;3.70;;;;;;;21.46;100.00;98724.02;109484;1250;72368;-71
2023/08/27 04:03:45;;;;;;;10.40;4.00;;;;;;;21.59;100.00;98729.83;109701;1250;60118;-70
2023/08/27 04:06:12;;;;;;;5.80;3.30;;;;;;;21.74;100.00;98728.95;109588;1250;60004;-70
2023/08/27 04:08:38;;;;;;;7.40;3.80;;;;;;;21.91;100.00;98731.15;109557;1250;73456;-70
2023/08/27 04:11:05;;;;;;;8.20;3.30;;;;;;;22.10;100.00;98727.31;109717;1249;67684;-71
2023/08/27 04:13:32;;;;;;;5.70;4.20;;;;;;;22.32;100.00;98717.08;109525;1252;72519;-71
2023/08/27 04:15:59;;;;;;;5.30;3.40;;;;;;;22.57;100.00;98714.52;109471;1250;60326;-71
2023/08/27 04:18:27;;;;;;;3.90;3.30;;;;;;;22.85;100.00;98702.98;109704;1250;60360;-71
2023/08/27 04:20:54;;;;;;;6.50;3.00;;;;;;;23.08;100.00;98705.40;109665;1250;73177;-71
2023/08/27 04:23:21;;;;;;;6.30;3.70;;;;;;;23.26;100.00;98710.96;109590;1250;67882;-70
2023/08/27 04:25:48;;;;;;;5.90;3.40;;;;;;;23.45;100.00;98707.58;109636;1250;72374;-71
2023/08/27 04:28:15;;;;;;;5.60;3.40;;;;;;;23.67;100.00;98712.61;109604;1250;62529;-71
2023/08/27 04:30:42;;;;;;;8.00;3.90;;;;;;;23.86;100.00;98714.22;109555;1250;59114;-71
2023/08/27 04:33:10;;;;;;;5.70;3.50;;;;;;;24.07;100.00;98712.71;109679;1250;73623;-70
2023/08/27 04:35:38;;;;;;;4.20;3.40;;;;;;;24.30;100.00;98705.38;109539;1250;68328;-71
2023/08/27 04:38:05;;;;;;;4.40;3.40;;;;;;;24.54;100.00;98700.33;109538;1252;73779;-71
2023/08/27 04:40:32;;;;;;;4.20;3.30;;;;;;;24.69;100.00;98707.29;109634;1250;59200;-71
2023/08/27 04:42:59;;;;;;;8.40;4.10;;;;;;;24.76;100.00;98710.71;109535;1250;60144;-70
2023/08/27 04:45:25;;;;;;;4.10;3.40;;;;;;;24.84;100.00;98716.69;109705;1250;74465;-68
2023/08/27 04:47:52;;;;;;;3.90;3.20;;;;;;;24.85;100.00;98722.02;109677;1250;68025;-68
2023/08/27 04:50:19;;;;;;;3.60;3.30;;;;;;;24.73;100.00;98727.27;109554;1250;72471;-68
2023/08/27 04:52:45;;;;;;;7.60;3.80;;;;;;;24.51;100.00;98726.48;109700;1250;60386;-69
2023/08/27 04:55:12;;;;;;;4.40;3.10;;;;;;;24.29;100.00;98729.74;109646;1250;59027;-67
2023/08/27 04:57:39;;;;;;;4.70;3.30;;;;;;;24.18;100.00;98738.04;109699;1250;74478;-66
2023/08/27 05:00:13;;;;;;;6.80;4.10;;;;;;;24.09;100.00;98743.20;109686;1250;68995;-66
2023/08/27 05:02:40;;;;;;;5.10;3.30;;;;;;;24.00;100.00;98751.89;109622;1251;72686;-67
2023/08/27 05:05:07;;;;;;;5.30;3.50;;;;;;;23.91;100.00;98747.13;109521;1250;61641;-68
2023/08/27 05:07:34;;;;;;;3.80;3.10;;;;;;;23.81;100.00;98735.95;109633;1250;60324;-66
2023/08/27 05:10:02;;;;;;;3.80;3.50;;;;;;;23.72;100.00;98733.52;109680;1250;74537;-67
2023/08/27 05:12:30;;;;;;;6.30;3.70;;;;;;;23.68;100.00;98734.50;109586;1250;68032;-67
2023/08/27 05:14:56;;;;;;;5.00;3.70;;;;;;;23.62;100.00;98731.24;109553;1250;72788;-68
2023/08/27 05:17:23;;;;;;;3.90;3.50;;;;;;;23.55;100.00;98731.02;109460;1250;60274;-71
2023/08/27 05:19:49;;;;;;;3.80;3.40;;;;;;;23.56;100.00;98742.65;109690;1250;58977;-69
2023/08/27 05:22:16;;;;;;;2.90;2.70;;;;;;;23.66;100.00;98740.25;109636;1251;74352;-70
2023/08/27 05:24:43;;;;;;;5.00;3.70;;;;;;;23.88;100.00;98735.66;109651;1250;67896;-69
2023/08/27 05:27:10;;;;;;;10.40;3.70;;;;;;;24.16;100.00;98726.67;109532;1250;71908;-69
2023/08/27 05:29:37;;;;;;;5.60;3.40;;;;;;;24.34;100.00;98722.60;109630;1250;60190;-67
2023/08/27 05:32:05;;;;;;;6.60;3.40;;;;;;;24.52;100.00;98718.77;109536;1250;61373;-70
2023/08/27 05:34:33;;;;;;;7.20;3.80;;;;;;;24.80;100.00;98720.40;109576;1250;74796;-72
2023/08/27 05:37:04;;;;;;;4.70;3.20;;;;;;;25.08;100.00;98719.20;109592;1250;67997;-68
2023/08/27 05:39:31;;;;;;;7.40;3.70;;;;;;;25.27;100.00;98722.13;109600;1250;71071;-70
2023/08/27 05:41:58;;;;;;;4.90;3.60;;;;;;;25.37;100.00;98723.46;109495;1250;60328;-69
2023/08/27 05:44:24;;;;;;;4.40;3.40;;;;;;;25.40;100.00;98724.52;109646;1250;60161;-69
2023/08/27 05:46:51;;;;;;;4.90;3.30;;;;;;;25.37;100.00;98730.32;109505;1250;74432;-68
2023/08/27 05:49:18;;;;;;;5.50;3.30;;;;;;;25.29;100.00;98738.39;109520;1250;67870;-67
2023/08/27 05:51:46;;;;;;;6.10;3.00;;;;;;;25.20;100.00;98738.72;109506;1250;73190;-68
2023/08/27 05:54:13;;;;;;;3.80;3.40;;;;;;;25.08;100.00;98743.59;109489;1250;59007;-67
2023/08/27 05:56:40;;;;;;;5.10;3.40;;;;;;;24.98;100.00;98753.43;109540;1250;59180;-71
2023/08/27 05:59:09;;;;;;;4.50;3.80;;;;;;;24.88;100.00;98755.50;109443;1250;74452;-67
2023/08/27 06:01:35;;;;;;;5.20;3.80;;;;;;;24.82;100.00;98757.01;109459;1250;67866;-68
2023/08/27 06:04:02;;;;;;;5.30;4.00;;;;;;;24.72;100.00;98755.89;109609;1250;73240;-70
2023/08/27 06:06:29;;;;;;;4.80;3.70;;;;;;;24.61;100.00;98753.05;109491;1250;61865;-65
2023/08/27 06:08:56;;;;;;;5.60;3.60;;;;;;;24.52;100.00;98770.98;109660;1250;59983;-67
2023/08/27 06:11:22;;;;;;;7.30;4.20;;;;;;;24.42;100.00;98841.52;109545;1250;73255;-68
2023/08/27 06:13:49;;;;;;;6.50;5.00;;;;;;;24.26;100.00;98874.92;109607;1250;67757;-66
2023/08/27 06:16:16;;;;;;;4.80;3.60;;;;;;;24.05;100.00;98853.66;109517;1250;72666;-64
2023/08/27 06:18:42;;;;;;;6.30;4.30;;;;;;;23.85;100.00;98852.73;109561;1250;60194;-69
2023/08/27 06:21:09;;;;;;;6.70;4.60;;;;;;;23.67;100.00;98862.82;109606;1250;60895;-66
2023/08/27 06:23:36;;;;;;;4.50;3.40;;;;;;;23.50;100.00;98853.39;109564;1251;74850;-71
2023/08/27 06:26:03;;;;;;;3.00;2.70;;;;;;;23.32;100.00;98852.89;109560;1250;66544;-68
2023/08/27 06:28:30;;;;;;;3.70;3.40;;;;;;;23.16;100.00;98860.60;109665;1250;72698;-66
2023/08/27 06:30:58;;;;;;;7.70;3.50;;;;;;;23.03;100.00;98854.91;109577;1250;61738;-66
2023/08/27 06:33:24;;;;;;;3.80;3.10;;;;;;;22.94;100.00;98835.46;109531;1250;59049;-67
2023/08/27 06:35:51;;;;;;;5.60;3.70;;;;;;;22.84;100.00;98848.16;109520;1250;74379;-67
2023/08/27 06:38:18;;;;;;;3.90;3.40;;;;;;;22.76;100.00;98842.42;109570;1251;66828;-67
2023/08/27 06:40:45;;;;;;;4.50;3.60;;;;;;;22.76;100.00;98834.50;109523;1250;71121;-67
2023/08/27 06:43:11;;;;;;;3.50;3.00;;;;;;;22.77;100.00;98852.52;109526;1252;59210;-57
2023/08/27 06:45:43;;;;;;;3.70;3.00;;;;;;;22.82;100.00;98863.23;109516;1250;58958;-66
2023/08/27 06:48:10;;;;;;;3.40;3.10;;;;;;;22.88;100.00;98852.40;109533;1250;75548;-67
2023/08/27 06:50:36;;;;;;;3.40;2.90;;;;;;;22.93;100.00;98846.25;109519;1250;67661;-65
2023/08/27 06:53:04;;;;;;;3.10;2.80;;;;;;;22.96;100.00;98840.73;109604;1250;71236;-68
2023/08/27 06:55:31;;;;;;;3.30;2.90;;;;;;;22.99;100.00;98831.73;109573;1250;60672;-67
2023/08/27 06:57:58;;;;;;;3.20;2.90;;;;;;;23.03;100.00;98823.16;109512;1251;59437;-66
2023/08/27 07:00:25;;;;;;;4.80;3.20;;;;;;;23.06;100.00;98829.15;109527;1250;73407;-69
2023/08/27 07:02:53;;;;;;;6.00;3.00;;;;;;;23.14;100.00;98832.65;109622;1250;66653;-70
2023/08/27 07:05:20;;;;;;;3.80;3.00;;;;;;;23.24;100.00;98832.95;109545;1250;71441;-66
2023/08/27 07:07:46;;;;;;;6.20;3.10;;;;;;;23.32;100.00;98842.14;109491;1252;61664;-66
2023/08/27 07:10:13;;;;;;;5.40;3.30;;;;;;;23.40;100.00;98844.14;109502;1250;59085;-68
2023/08/27 07:12:40;;;;;;;4.40;3.50;;;;;;;23.51;100.00;98832.98;109571;1250;74650;-70
2023/08/27 07:15:07;;;;;;;4.30;3.40;;;;;;;23.66;100.00;98832.46;109560;1250;66134;-68
2023/08/27 07:17:34;;;;;;;5.50;2.90;;;;;;;23.83;100.00;98839.20;109556;1250;72710;-67
2023/08/27 07:20:01;;;;;;;3.80;3.50;;;;;;;24.04;100.00;98834.70;109704;1250;60135;-69
2023/08/27 07:22:28;;;;;;;3.30;3.00;;;;;;;24.31;100.00;98833.98;109608;1250;59679;-71
2023/08/27 07:24:55;;;;;;;4.00;3.20;;;;;;;24.63;100.00;98837.72;109533;1250;73328;-68
2023/08/27 07:27:22;;;;;;;4.20;3.00;;;;;;;24.99;100.00;98827.33;109392;1250;66877;-67
2023/08/27 07:29:49;;;;;;;3.80;2.70;;;;;;;25.36;100.00;98822.77;109389;1250;72490;-67
2023/08/27 07:32:16;;;;;;;3.00;2.70;;;;;;;25.71;100.00;98819.95;109485;1250;58991;-68
2023/08/27 07:34:44;;;;;;;3.20;2.60;;;;;;;25.99;100.00;98820.43;109509;1250;60237;-67
2023/08/27 07:37:12;;;;;;;4.30;3.00;;;;;;;26.25;100.00;98824.21;109552;1250;73782;-67
2023/08/27 07:39:39;;;;;;;6.50;3.00;;;;;;;26.44;100.00;98822.27;109453;1250;66312;-69
2023/08/27 07:42:07;;;;;;;3.30;2.60;;;;;;;26.56;100.00;98821.24;109478;1250;72906;-69
2023/08/27 07:44:33;;;;;;;7.70;2.50;;;;;;;26.67;100.00;98819.61;109481;1251;59777;-69
2023/08/27 07:47:00;;;;;;;5.80;2.60;;;;;;;26.74;100.00;98818.32;109421;1250;59150;-69
2023/08/27 07:49:28;;;;;;;3.20;2.30;;;;;;;26.71;100.00;98821.32;109448;1256;75024;-69
2023/08/27 07:51:55;;;;;;;4.00;3.60;;;;;;;26.59;100.00;98824.17;109546;1254;59239;-67
2023/08/27 07:54:21;;;;;;;7.30;5.30;;;;;;;26.43;100.00;98820.30;109424;1250;72552;-76
2023/08/27 07:56:48;;;;;;;7.80;7.00;;;;;;;26.27;100.00;98809.67;109484;1250;59167;-69
2023/08/27 07:59:16;;;;;;;10.90;7.60;;;;;;;26.09;100.00;98810.65;109519;1251;59019;-68
2023/08/27 08:01:43;;;;;;;14.60;9.00;;;;;;;25.88;100.00;98803.59;109650;1250;73512;-68
2023/08/27 08:04:09;;;;;;;10.70;8.90;;;;;;;25.74;100.00;98798.69;109616;1250;66616;-67
2023/08/27 08:06:36;;;;;;;10.60;8.50;;;;;;;25.71;100.00;98795.00;109682;1250;73164;-68
2023/08/27 08:09:02;;;;;;;12.40;10.20;;;;;;;25.83;100.00;98794.25;109645;1250;61899;-69
2023/08/27 08:11:29;;;;;;;12.70;10.50;;;;;;;26.02;100.00;98792.08;109621;1251;60350;-69
2023/08/27 08:13:56;;;;;;;11.40;9.00;;;;;;;26.27;100.00;98785.24;109738;1250;74474;-69
2023/08/27 08:16:24;;;;;;;8.80;7.90;;;;;;;26.70;100.00;98769.23;109673;1250;68396;-69
2023/08/27 08:18:50;;;;;;;8.90;7.60;;;;;;;27.16;100.00;98760.98;109698;1251;71646;-68
2023/08/27 08:21:17;;;;;;;8.60;6.70;;;;;;;27.58;100.00;98748.33;109625;1250;59299;-68
2023/08/27 08:23:44;;;;;;;5.30;4.50;;;;;;;28.01;100.00;98734.99;109613;1251;60449;-67
2023/08/27 08:26:10;;;;;;;4.70;4.20;;;;;;;28.28;100.00;98719.77;109763;1250;74834;-68
2023/08/27 08:28:37;;;;;;;5.40;3.60;;;;;;;28.44;100.00;98719.30;109617;1254;66697;-68
2023/08/27 08:31:04;;;;;;;3.00;2.80;;;;;;;28.65;100.00;98717.18;109660;1251;72672;-68
2023/08/27 08:33:31;;;;;;;4.00;3.70;;;;;;;28.84;100.00;98709.67;109546;1251;59082;-67
2023/08/27 08:35:57;;;;;;;3.10;2.90;;;;;;;28.67;100.00;98702.96;109646;1250;58992;-68
2023/08/27 08:38:24;;;;;;;4.30;3.40;;;;;;;28.26;100.00;98695.27;109705;1251;74305;-68
2023/08/27 08:40:56;;;;;;;3.10;2.90;;;;;;;27.74;100.00;98699.71;109764;1251;67697;-68
2023/08/27 08:43:26;;;;;;;4.20;3.90;;;;;;;27.30;100.00;98705.58;109630;1250;70908;-69
2023/08/27 08:46:05;;;;;;;3.70;3.20;;;;;;;26.85;100.00;98717.37;109634;1251;60805;-68
2023/08/27 08:48:39;;;;;;;4.90;3.50;;;;;;;26.55;100.00;98737.00;109678;1251;59000;-68
2023/08/27 08:51:09;;;;;;;3.30;3.00;;;;;;;26.46;100.00;98746.65;109625;1253;75844;-68
2023/08/27 08:53:39;;;;;;;3.60;3.00;;;;;;;26.46;100.00;98751.39;109704;1250;66762;-68
2023/08/27 08:56:07;;;;;;;3.20;2.90;;;;;;;26.47;100.00;98751.77;109683;1250;72697;-68
2023/08/27 08:58:37;;;;;;;3.60;3.10;;;;;;;26.52;100.00;98747.84;109589;1250;60498;-68
2023/08/27 09:01:07;;;;;;;4.10;3.30;;;;;;;26.56;100.00;98747.89;109599;1251;60251;-68
2023/08/27 09:03:35;;;;;;;3.80;3.40;;;;;;;26.59;100.00;98746.33;109530;1250;73075;-68
2023/08/27 09:06:02;;;;;;;5.30;3.30;;;;;;;26.63;100.00;98749.50;109642;1251;66518;-67
2023/08/27 09:08:29;;;;;;;4.10;3.50;;;;;;;26.78;100.00;98746.70;109597;1256;72670;-70
2023/08/27 09:10:56;;;;;;;3.70;3.40;;;;;;;27.01;100.00;98744.66;109653;1251;60092;-69
2023/08/27 09:13:23;;;;;;;5.40;3.30;;;;;;;27.15;100.00;98743.91;109609;1250;58925;-69
2023/08/27 09:15:49;;;;;;;3.70;3.40;;;;;;;27.06;100.00;98744.36;109628;1252;74633;-68
2023/08/27 09:18:16;;;;;;;4.50;4.00;;;;;;;26.90;100.00;98741.86;109658;1251;66424;-69
2023/08/27 09:20:43;;;;;;;3.80;3.20;;;;;;;26.76;100.00;98736.46;109716;1251;72618;-68
2023/08/27 09:23:11;;;;;;;3.40;3.10;;;;;;;26.65;100.00;98731.52;109645;1251;60229;-68
2023/08/27 09:25:41;;;;;;;3.40;3.10;;;;;;;26.55;100.00;98733.61;109714;1251;59028;-68
2023/08/27 09:28:08;;;;;;;3.90;3.50;;;;;;;26.45;100.00;98731.67;109577;1251;74485;-67
2023/08/27 09:30:34;;;;;;;4.20;3.10;;;;;;;26.34;100.00;98723.73;109711;1251;67883;-68
2023/08/27 09:33:02;;;;;;;2.90;2.70;;;;;;;26.23;100.00;98722.06;109644;1251;71573;-68
2023/08/27 09:35:40;;;;;;;3.70;3.40;;;;;;;26.08;100.00;98718.10;109625;1251;62070;-69
2023/08/27 09:38:07;;;;;;;3.60;3.30;;;;;;;25.99;100.00;98715.74;109654;1251;59006;-68
2023/08/27 09:40:34;;;;;;;3.90;3.50;;;;;;;25.94;100.00;98705.82;109571;1250;75097;-68
2023/08/27 09:43:05;;;;;;;5.00;3.50;;;;;;;25.89;100.00;98706.31;109678;1250;67464;-68
2023/08/27 09:45:35;;;;;;;3.60;3.30;;;;;;;25.89;100.00;98706.97;109585;1251;71445;-68
2023/08/27 09:48:03;;;;;;;4.90;3.40;;;;;;;25.94;100.00;98704.19;109627;1251;60571;-68
2023/08/27 09:50:31;;;;;;;4.40;3.70;;;;;;;26.09;100.00;98702.51;109578;1251;59055;-69
2023/08/27 09:53:13;;;;;;;3.30;3.00;;;;;;;26.25;100.00;98705.71;109619;1250;75143;-68
2023/08/27 09:55:40;;;;;;;3.40;3.10;;;;;;;26.58;100.00;98704.30;109654;1250;66801;-68
2023/08/27 09:58:06;;;;;;;3.40;3.10;;;;;;;26.98;100.00;98697.70;109662;1251;72378;-68
2023/08/27 10:00:33;;;;;;;3.50;3.10;;;;;;;27.40;100.00;98696.79;109634;1250;59001;-68
2023/08/27 10:03:00;;;;;;;4.00;3.20;;;;;;;27.76;100.00;98691.42;109651;1250;58956;-68
2023/08/27 10:05:28;;;;;;;2.80;2.60;;;;;;;28.10;100.00;98689.54;109691;1251;73150;-68
2023/08/27 10:07:59;;;;;;;4.30;3.20;;;;;;;28.36;100.00;98676.52;109658;1251;67065;-68
2023/08/27 10:10:27;;;;;;;3.50;3.20;;;;;;;28.66;100.00;98677.21;109711;1253;72739;-68
2023/08/27 10:12:54;;;;;;;3.00;2.70;;;;;;;29.02;100.00;98678.15;109584;1251;59080;-68
2023/08/27 10:15:25;;;;;;;4.30;3.40;;;;;;;29.29;100.00;98670.40;109674;1251;60139;-68
2023/08/27 10:17:53;;;;;;;2.90;2.70;;;;;;;29.44;100.00;98667.48;109641;1251;74708;-68
2023/08/27 10:20:20;;;;;;;2.90;2.70;;;;;;;29.58;100.00;98669.20;109680;1250;66903;-68
2023/08/27 10:22:47;;;;;;;2.90;2.60;;;;;;;29.63;100.00;98664.55;109663;1251;73373;-67
2023/08/27 10:25:19;;;;;;;3.40;3.10;;;;;;;29.59;100.00;98658.38;109603;1251;59156;-68
2023/08/27 10:27:47;;;;;;;3.50;3.20;;;;;;;29.58;100.00;98652.95;109643;1250;59200;-68
2023/08/27 10:30:15;;;;;;;3.40;3.20;;;;;;;29.66;100.00;98651.88;109695;1250;74481;-68
2023/08/27 10:32:44;;;;;;;4.00;3.00;;;;;;;29.70;100.00;98650.23;109717;1251;67767;-68
2023/08/27 10:35:11;;;;;;;3.90;2.80;;;;;;;29.73;100.00;98643.67;109601;1251;72579;-67
2023/08/27 10:37:39;;;;;;;3.90;2.90;;;;;;;29.78;100.00;98640.72;109658;1250;59118;-67
2023/08/27 10:40:08;;;;;;;3.30;2.70;;;;;;;29.73;100.00;98640.50;109541;1251;60369;-68
2023/08/27 10:42:38;;;;;;;4.80;2.70;;;;;;;29.64;100.00;98638.15;109534;1251;74677;-67
2023/08/27 10:45:18;;;;;;;2.70;2.50;;;;;;;29.51;100.00;98635.24;109679;1251;67659;-68
2023/08/27 10:48:16;;;;;;;5.10;3.20;;;;;;;29.41;100.00;98633.64;109617;1250;72710;-68
2023/08/27 10:50:44;;;;;;;2.70;2.50;;;;;;;29.39;100.00;98630.34;109574;1250;60112;-68
2023/08/27 10:53:10;;;;;;;2.60;2.40;;;;;;;29.38;100.00;98629.63;109601;1251;60154;-68
2023/08/27 10:55:37;;;;;;;3.80;2.80;;;;;;;29.42;100.00;98624.23;109604;1251;74688;-69
2023/08/27 10:58:15;;;;;;;4.20;3.00;;;;;;;29.35;100.00;98621.52;109675;1250;67930;-67
2023/08/27 11:01:06;;;;;;;2.40;2.20;;;;;;;29.26;100.00;98615.92;109577;1250;71210;-68
2023/08/27 11:03:57;;;;;;;4.40;3.10;;;;;;;29.23;100.00;98611.30;109568;1251;60126;-68
2023/08/27 11:06:34;;;;;;;3.90;2.70;;;;;;;29.19;100.00;98610.87;109659;1251;60312;-67
2023/08/27 11:09:00;;;;;;;2.50;2.30;;;;;;;29.16;100.00;98611.38;109527;1250;74678;-68
2023/08/27 11:11:31;;;;;;;3.20;2.90;;;;;;;29.16;100.00;98610.06;109578;1251;67101;-68
2023/08/27 11:14:10;;;;;;;3.40;2.50;;;;;;;29.13;100.00;98605.71;109498;1250;71672;-69
2023/08/27 11:16:53;;;;;;;3.00;2.80;;;;;;;29.04;100.00;98602.66;109613;1250;58991;-69
2023/08/27 11:19:27;;;;;;;3.50;3.00;;;;;;;28.93;100.00;98601.44;109635;1251;59093;-68
2023/08/27 11:22:08;;;;;;;3.70;2.50;;;;;;;28.87;100.00;98598.30;109647;1251;73134;-67